Terminal Aerodrome Forecast
Issued by NWS

Current Version | Previous Version | Text Only | Print | Product List | Glossary On
Versions: 1 2 3 4 5 6 7 8 9 10 11 12 13 14 15 16 17 18 19 20
000
FTUS42 KFFC 112000 AAB
TAFFTY
TAF AMD
KFTY 112036Z 1121/1218 VRB05KT P6SM SCT030 BKN045
      TEMPO 1121/1123 VRB10G20KT 3SM TSRA BR BKN035CB
     FM120100 00000KT P6SM SCT250
     FM121400 12005KT P6SM FEW025=

USA.gov is the U.S. government's official web portal to all federal, state and local government web resources and services.